Time;durP1;ratioP1;P1;durP2;ratioP2;P2;SDS_P1;SDS_P2;PMS_P1;PMS_P2;Temp;Humidity;BMP_temperature;BMP_pressure;BME280_temperature;BME280_humidity;BME280_pressure;Samples;Min_cycle;Max_cycle;Signal;HPM_P1;HPM_P2
2023/06/26 00:01:31;;;;;;;9.90;6.78;;;;;;;25.09;44.01;99584.88;4996895;28;21221;-80
2023/06/26 00:04:00;;;;;;;9.65;5.75;;;;;;;25.10;44.14;99583.72;4996646;28;20026;-80
2023/06/26 00:06:25;;;;;;;10.13;6.60;;;;;;;25.05;44.24;99587.59;4995394;28;20169;-80
2023/06/26 00:08:52;;;;;;;8.38;4.97;;;;;;;25.05;44.08;99585.63;4997437;28;20121;-80
2023/06/26 00:11:18;;;;;;;9.98;5.88;;;;;;;24.95;44.38;99584.25;4996486;28;20537;-80
2023/06/26 00:13:43;;;;;;;9.35;5.60;;;;;;;25.01;44.27;99590.31;4996649;28;20026;-80
2023/06/26 00:16:09;;;;;;;10.23;6.47;;;;;;;24.98;44.29;99584.69;4996682;28;20464;-81
2023/06/26 00:18:34;;;;;;;11.13;6.63;;;;;;;24.92;44.25;99575.75;4996291;28;20034;-80
2023/06/26 00:20:59;;;;;;;9.47;5.30;;;;;;;24.90;44.32;99589.25;4996911;28;20031;-79
2023/06/26 00:23:24;;;;;;;7.73;5.43;;;;;;;24.89;44.71;99585.69;4996359;28;20256;-80
2023/06/26 00:25:50;;;;;;;8.33;5.93;;;;;;;24.89;44.70;99593.22;4996461;28;20085;-81
2023/06/26 00:28:15;;;;;;;18.03;6.60;;;;;;;24.83;44.39;99587.97;4995731;28;20030;-80
2023/06/26 00:30:40;;;;;;;8.77;5.47;;;;;;;24.80;44.82;99580.31;4996146;28;20487;-80
2023/06/26 00:33:05;;;;;;;10.50;6.30;;;;;;;24.80;44.87;99585.88;4996224;28;20026;-79
2023/06/26 00:35:31;;;;;;;11.50;6.53;;;;;;;24.84;44.79;99583.97;4994905;28;20033;-80
2023/06/26 00:37:56;;;;;;;12.00;5.80;;;;;;;24.87;44.98;99573.28;4995417;28;20088;-81
2023/06/26 00:40:22;;;;;;;10.80;6.40;;;;;;;24.84;44.70;99580.38;4995684;28;20031;-79
2023/06/26 00:42:47;;;;;;;11.07;5.93;;;;;;;24.78;44.98;99577.09;4995925;28;20392;-80
2023/06/26 00:45:12;;;;;;;11.13;5.23;;;;;;;24.79;45.03;99584.28;5002428;28;20096;-79
2023/06/26 00:47:38;;;;;;;10.17;6.80;;;;;;;24.88;45.12;99581.25;4991012;28;20034;-84
2023/06/26 00:50:04;;;;;;;9.10;5.40;;;;;;;24.79;45.12;99573.13;4993230;28;20311;-79
2023/06/26 00:52:31;;;;;;;9.32;6.47;;;;;;;24.72;44.85;99575.75;4995153;28;20042;-80
2023/06/26 00:54:56;;;;;;;14.75;5.68;;;;;;;24.68;45.16;99583.25;4995753;28;20030;-81
2023/06/26 00:57:22;;;;;;;10.88;5.95;;;;;;;24.77;45.17;99575.50;4996405;28;20034;-81
2023/06/26 00:59:48;;;;;;;10.90;5.97;;;;;;;24.73;44.76;99574.59;4995744;28;20081;-82
2023/06/26 01:02:19;;;;;;;10.27;6.00;;;;;;;24.72;45.20;99575.75;4995190;28;20034;-80
2023/06/26 01:04:46;;;;;;;8.73;5.43;;;;;;;24.66;45.08;99574.44;4995538;28;20026;-81
2023/06/26 01:07:13;;;;;;;7.43;5.10;;;;;;;24.73;44.93;99569.03;4996020;28;20468;-80
2023/06/26 01:09:38;;;;;;;9.40;5.53;;;;;;;24.80;45.17;99560.00;4998204;28;20034;-81
2023/06/26 01:12:03;;;;;;;9.33;5.80;;;;;;;24.78;44.94;99560.38;4995987;28;20601;-80
2023/06/26 01:14:29;;;;;;;8.77;5.70;;;;;;;24.78;45.16;99565.13;4989699;28;20259;-83
2023/06/26 01:16:57;;;;;;;8.82;5.60;;;;;;;24.76;44.86;99557.13;4995997;28;20041;-82
2023/06/26 01:19:29;;;;;;;9.75;6.53;;;;;;;24.68;44.65;99550.63;4995430;28;20027;-81
2023/06/26 01:22:27;;;;;;;10.63;6.10;;;;;;;24.75;44.50;99551.94;4995709;28;20080;-81
2023/06/26 01:25:09;;;;;;;11.07;6.07;;;;;;;24.73;44.76;99549.53;4994416;28;20045;-80
2023/06/26 01:27:35;;;;;;;12.45;6.38;;;;;;;24.73;45.00;99552.31;4995677;28;20030;-81
2023/06/26 01:30:03;;;;;;;7.80;4.78;;;;;;;24.74;44.82;99541.94;4995238;28;20108;-80
2023/06/26 01:32:30;;;;;;;8.45;5.82;;;;;;;24.68;44.80;99544.22;4995496;28;20043;-82
2023/06/26 01:34:57;;;;;;;10.00;5.63;;;;;;;24.70;44.81;99544.66;4995577;28;20022;-81
2023/06/26 01:37:22;;;;;;;17.50;5.63;;;;;;;24.74;44.87;99541.94;4995466;28;20049;-82
2023/06/26 01:39:48;;;;;;;11.50;6.37;;;;;;;24.73;44.80;99538.38;4995150;28;20487;-81
2023/06/26 01:42:13;;;;;;;9.87;5.70;;;;;;;24.67;44.80;99537.84;4995294;28;20023;-81
2023/06/26 01:44:44;;;;;;;11.45;6.03;;;;;;;24.66;44.88;99529.84;4995388;28;20033;-81
2023/06/26 01:47:17;;;;;;;11.95;6.03;;;;;;;24.64;44.86;99533.00;4993936;28;20125;-83
2023/06/26 01:49:49;;;;;;;11.85;6.43;;;;;;;24.63;44.61;99542.56;4994781;28;20034;-81
2023/06/26 01:52:28;;;;;;;7.53;5.30;;;;;;;24.65;44.41;99533.84;5002057;28;20045;-81
2023/06/26 01:55:15;;;;;;;12.30;6.90;;;;;;;24.60;44.60;99532.13;5003226;28;20030;-81
2023/06/26 01:57:42;;;;;;;9.65;5.68;;;;;;;24.62;44.79;99528.97;4995224;28;20034;-81
2023/06/26 02:00:11;;;;;;;8.45;5.53;;;;;;;24.59;44.59;99531.31;4994741;28;20430;-81
2023/06/26 02:02:36;;;;;;;9.35;6.05;;;;;;;24.52;44.90;99530.38;4995161;28;20023;-81
2023/06/26 02:05:01;;;;;;;9.20;6.13;;;;;;;24.51;44.91;99528.78;4995381;28;20424;-81
2023/06/26 02:07:27;;;;;;;9.65;5.45;;;;;;;24.48;45.00;99521.94;4995140;28;20536;-82
2023/06/26 02:09:52;;;;;;;10.63;5.10;;;;;;;24.35;45.06;99526.84;4996825;28;20584;-81
2023/06/26 02:12:17;;;;;;;8.65;5.70;;;;;;;24.35;45.29;99530.44;4999788;28;20276;-81
2023/06/26 02:14:43;;;;;;;8.80;5.67;;;;;;;24.46;44.90;99527.88;4994331;28;20034;-82
2023/06/26 02:17:08;;;;;;;11.98;5.88;;;;;;;24.47;44.96;99523.09;4994740;28;20510;-81
2023/06/26 02:19:34;;;;;;;7.65;5.28;;;;;;;24.47;45.14;99523.09;4994826;28;20026;-81
2023/06/26 02:21:59;;;;;;;8.25;5.43;;;;;;;24.62;45.23;99523.41;4994813;28;20058;-81
2023/06/26 02:24:24;;;;;;;9.27;5.65;;;;;;;24.51;44.89;99518.41;4994790;28;20053;-81
2023/06/26 02:26:49;;;;;;;10.70;7.18;;;;;;;24.39;45.19;99527.72;4994372;28;20018;-80
2023/06/26 02:29:15;;;;;;;9.33;5.57;;;;;;;24.39;45.38;99521.38;4992295;28;20045;-80
2023/06/26 02:31:40;;;;;;;8.10;5.00;;;;;;;24.40;45.08;99526.56;4993788;28;20062;-80
2023/06/26 02:34:06;;;;;;;10.90;5.80;;;;;;;24.36;45.13;99529.28;4993816;28;20423;-80
2023/06/26 02:36:32;;;;;;;9.80;5.53;;;;;;;24.35;45.07;99527.66;4993423;28;20022;-79
2023/06/26 02:38:57;;;;;;;10.20;6.40;;;;;;;24.32;45.09;99524.78;4993287;28;20396;-79
2023/06/26 02:41:22;;;;;;;8.82;5.82;;;;;;;24.31;44.74;99532.34;4993401;28;20260;-81
2023/06/26 02:43:47;;;;;;;7.63;5.13;;;;;;;24.29;44.99;99526.31;4993811;28;20026;-79
2023/06/26 02:46:13;;;;;;;9.07;6.40;;;;;;;24.27;45.21;99531.44;4994056;28;20030;-79
2023/06/26 02:48:38;;;;;;;12.83;7.17;;;;;;;24.31;44.96;99528.72;4992333;28;20081;-80
2023/06/26 02:51:03;;;;;;;11.68;6.55;;;;;;;24.21;45.21;99527.31;4992966;28;20356;-78
2023/06/26 02:53:28;;;;;;;10.30;6.63;;;;;;;24.22;45.23;99529.78;4992892;28;20024;-80
2023/06/26 02:55:54;;;;;;;9.77;5.93;;;;;;;24.24;45.13;99532.19;4992606;28;20053;-79
2023/06/26 02:58:19;;;;;;;8.57;5.47;;;;;;;24.22;45.46;99540.09;4992450;28;20506;-79
2023/06/26 03:00:44;;;;;;;9.37;5.80;;;;;;;24.30;45.71;99536.31;4993400;28;20031;-79
2023/06/26 03:03:09;;;;;;;11.07;6.22;;;;;;;24.33;45.31;99541.13;4992618;28;20061;-79
2023/06/26 03:05:35;;;;;;;8.30;5.97;;;;;;;24.28;45.69;99529.47;4992922;28;20066;-79
2023/06/26 03:08:00;;;;;;;9.97;6.10;;;;;;;24.10;45.93;99541.78;4992985;28;20030;-79
2023/06/26 03:10:25;;;;;;;10.15;5.72;;;;;;;24.01;46.07;99547.56;4993210;28;20255;-80
2023/06/26 03:12:51;;;;;;;8.47;6.13;;;;;;;24.12;45.85;99535.88;5003045;28;20041;-80
2023/06/26 03:15:16;;;;;;;9.73;6.90;;;;;;;24.23;46.22;99545.31;4994628;28;20022;-79
2023/06/26 03:17:41;;;;;;;10.83;6.70;;;;;;;24.24;45.71;99554.47;4993254;28;20472;-80
2023/06/26 03:20:07;;;;;;;11.00;5.77;;;;;;;24.00;46.06;99540.38;4992433;28;20030;-79
2023/06/26 03:22:33;;;;;;;9.18;5.75;;;;;;;23.99;46.24;99544.34;4993188;28;20335;-80
2023/06/26 03:24:59;;;;;;;12.45;6.03;;;;;;;23.95;46.34;99553.78;4990944;28;20045;-81
2023/06/26 03:27:24;;;;;;;8.50;5.35;;;;;;;23.98;46.47;99553.84;4992853;28;20559;-80
2023/06/26 03:29:49;;;;;;;8.53;5.37;;;;;;;23.99;46.38;99560.22;4992949;28;20522;-81
2023/06/26 03:32:15;;;;;;;10.00;5.73;;;;;;;23.96;46.36;99558.19;4993330;28;20256;-80
2023/06/26 03:34:40;;;;;;;10.53;6.30;;;;;;;23.75;46.83;99562.88;4991970;28;20046;-80
2023/06/26 03:37:05;;;;;;;11.17;6.40;;;;;;;23.79;46.95;99568.53;4993263;28;20280;-81
2023/06/26 03:39:30;;;;;;;9.05;5.95;;;;;;;23.77;46.80;99570.84;4993595;28;20102;-81
2023/06/26 03:42:00;;;;;;;9.23;5.37;;;;;;;23.92;47.28;99582.34;4993504;28;20073;-81
2023/06/26 03:44:25;;;;;;;14.45;6.40;;;;;;;23.88;47.23;99583.03;4993554;28;20057;-81
2023/06/26 03:46:50;;;;;;;13.88;7.25;;;;;;;23.95;47.56;99582.41;4992269;28;20062;-81
2023/06/26 03:49:15;;;;;;;10.17;6.40;;;;;;;23.95;47.58;99576.84;4993081;28;20068;-81
2023/06/26 03:51:41;;;;;;;8.30;6.00;;;;;;;23.99;47.38;99582.50;4993241;28;20042;-81
2023/06/26 03:54:06;;;;;;;12.10;6.53;;;;;;;23.90;47.20;99575.13;4993284;28;20447;-82
2023/06/26 03:56:31;;;;;;;8.43;5.30;;;;;;;23.80;47.64;99575.69;4991717;28;20026;-81
2023/06/26 03:58:56;;;;;;;12.93;6.30;;;;;;;23.63;48.09;99591.59;4992522;28;20310;-81
2023/06/26 04:01:22;;;;;;;8.60;5.60;;;;;;;23.55;48.91;99587.00;4993241;28;20646;-81
2023/06/26 04:03:47;;;;;;;10.90;6.00;;;;;;;23.52;49.32;99582.97;4993119;28;20046;-81
2023/06/26 04:06:12;;;;;;;9.77;5.77;;;;;;;23.35;50.06;99584.06;4993028;28;21309;-81
2023/06/26 04:08:37;;;;;;;8.77;5.83;;;;;;;23.51;49.91;99580.53;4993130;28;20026;-80
2023/06/26 04:11:03;;;;;;;11.93;6.63;;;;;;;23.44;50.43;99593.09;4993362;28;20053;-81
2023/06/26 04:13:28;;;;;;;9.70;6.17;;;;;;;23.33;50.83;99586.41;4993152;28;20283;-81
2023/06/26 04:15:53;;;;;;;12.53;6.10;;;;;;;23.44;50.88;99597.81;4993397;28;20326;-82
2023/06/26 04:18:20;;;;;;;13.00;5.68;;;;;;;23.35;51.25;99589.63;4993190;28;20022;-82
2023/06/26 04:21:05;;;;;;;13.88;7.55;;;;;;;23.25;51.61;99595.75;4993056;28;20026;-83
2023/06/26 04:23:31;;;;;;;15.48;7.90;;;;;;;23.28;51.88;99606.94;4992120;28;20026;-82
2023/06/26 04:25:58;;;;;;;13.80;6.60;;;;;;;23.24;52.11;99606.03;4993355;28;20113;-81
2023/06/26 04:28:23;;;;;;;8.43;5.82;;;;;;;23.26;52.18;99614.84;4993156;28;20256;-82
2023/06/26 04:30:48;;;;;;;10.23;5.10;;;;;;;23.38;52.23;99611.19;4993160;28;20030;-82
2023/06/26 04:33:15;;;;;;;12.17;6.03;;;;;;;23.20;52.85;99616.25;4993090;28;20113;-81
2023/06/26 04:35:40;;;;;;;11.50;6.20;;;;;;;23.25;53.03;99618.75;4992538;28;21209;-80
2023/06/26 04:38:05;;;;;;;10.33;6.17;;;;;;;23.25;53.20;99629.09;4994860;28;20030;-80
2023/06/26 04:40:30;;;;;;;10.63;5.87;;;;;;;23.29;53.24;99618.88;4995774;28;20586;-80
2023/06/26 04:42:56;;;;;;;8.57;5.77;;;;;;;23.35;53.52;99622.22;4995919;28;20037;-80
2023/06/26 04:45:21;;;;;;;11.33;6.43;;;;;;;23.30;53.73;99626.06;4995781;28;20019;-80
2023/06/26 04:47:46;;;;;;;12.83;6.73;;;;;;;23.37;53.63;99626.25;4995704;28;20294;-79
2023/06/26 04:50:11;;;;;;;10.80;6.23;;;;;;;23.40;53.26;99625.53;4995214;28;20038;-79
2023/06/26 04:52:37;;;;;;;12.30;7.10;;;;;;;23.38;54.13;99633.44;4995640;28;20061;-80
2023/06/26 04:55:03;;;;;;;9.70;6.67;;;;;;;23.32;54.06;99634.84;4995597;28;20042;-80
2023/06/26 04:57:28;;;;;;;11.00;7.30;;;;;;;23.36;54.41;99640.50;4995328;28;20653;-81
2023/06/26 04:59:53;;;;;;;17.63;8.13;;;;;;;23.36;54.31;99649.66;4995380;28;20027;-79
2023/06/26 05:02:18;;;;;;;13.47;6.93;;;;;;;23.41;54.53;99643.84;4995190;28;20625;-80
2023/06/26 05:04:44;;;;;;;12.30;7.33;;;;;;;23.46;54.70;99644.75;4994921;28;20041;-80
2023/06/26 05:07:09;;;;;;;14.07;6.75;;;;;;;23.45;54.82;99638.41;4992542;28;20030;-81
2023/06/26 05:09:35;;;;;;;12.50;7.40;;;;;;;23.45;55.13;99635.63;4994450;28;20050;-80
2023/06/26 05:12:02;;;;;;;13.87;8.10;;;;;;;23.46;55.20;99647.53;4993925;28;20264;-85
2023/06/26 05:14:27;;;;;;;10.80;7.20;;;;;;;23.51;55.34;99645.31;4990740;28;20038;-85
2023/06/26 05:16:52;;;;;;;11.83;6.57;;;;;;;23.48;56.12;99648.00;4993138;28;20030;-81
2023/06/26 05:19:18;;;;;;;11.13;6.80;;;;;;;23.32;56.50;99652.34;4993880;28;20027;-83
2023/06/26 05:21:43;;;;;;;12.20;7.10;;;;;;;23.37;56.61;99642.13;4993411;28;20322;-84
2023/06/26 05:24:10;;;;;;;10.35;7.13;;;;;;;23.63;56.17;99644.47;4994227;28;20256;-80
2023/06/26 05:26:36;;;;;;;12.45;7.40;;;;;;;23.55;56.37;99648.22;4995150;28;20671;-80
2023/06/26 05:29:02;;;;;;;12.18;7.43;;;;;;;23.38;56.96;99641.78;4994884;28;20026;-79
2023/06/26 05:31:27;;;;;;;12.77;8.35;;;;;;;23.32;57.45;99641.22;4995058;28;20140;-80
2023/06/26 05:33:55;;;;;;;12.68;7.78;;;;;;;23.35;57.29;99647.25;4987848;28;20041;-81
2023/06/26 05:36:23;;;;;;;11.52;7.40;;;;;;;23.39;57.67;99650.94;4985583;28;20049;-80
2023/06/26 05:38:50;;;;;;;12.48;8.30;;;;;;;23.25;57.91;99645.78;4984335;28;20042;-80
2023/06/26 05:41:15;;;;;;;12.55;8.02;;;;;;;23.29;58.09;99657.81;4985149;28;20037;-81
2023/06/26 05:43:41;;;;;;;18.52;8.35;;;;;;;23.23;58.21;99651.69;4985861;28;20031;-81
2023/06/26 05:46:06;;;;;;;12.90;8.15;;;;;;;23.24;58.07;99655.28;4985512;28;20061;-80
2023/06/26 05:48:31;;;;;;;15.00;7.97;;;;;;;23.25;58.41;99654.13;4986922;28;20038;-80
2023/06/26 05:50:57;;;;;;;12.63;7.43;;;;;;;23.37;58.30;99675.50;4992528;28;20129;-83
2023/06/26 05:53:22;;;;;;;20.25;7.70;;;;;;;23.45;57.85;99674.56;4991603;28;20252;-81
2023/06/26 05:55:48;;;;;;;10.77;6.80;;;;;;;23.21;57.92;99674.28;4993691;28;20036;-80
2023/06/26 05:58:14;;;;;;;11.32;5.28;;;;;;;23.31;58.14;99678.53;4988869;28;21189;-80
2023/06/26 06:00:40;;;;;;;12.57;6.88;;;;;;;23.42;57.38;99673.28;4984991;28;20074;-79
2023/06/26 06:03:06;;;;;;;10.90;5.60;;;;;;;23.54;57.36;99685.53;4984882;28;20037;-78
2023/06/26 06:05:31;;;;;;;28.10;7.22;;;;;;;23.44;57.45;99686.81;4985002;28;20042;-78
2023/06/26 06:07:56;;;;;;;8.83;5.43;;;;;;;23.38;57.86;99696.56;4984447;28;20583;-80
2023/06/26 06:10:22;;;;;;;18.90;7.37;;;;;;;23.21;58.05;99695.72;4985102;28;20255;-78
2023/06/26 06:12:47;;;;;;;14.65;6.80;;;;;;;23.07;58.04;99682.19;4984784;28;20031;-78
2023/06/26 06:15:12;;;;;;;10.45;6.25;;;;;;;23.11;58.36;99680.34;4985184;28;20034;-79
2023/06/26 06:17:37;;;;;;;10.83;6.30;;;;;;;23.18;58.09;99694.47;4985164;28;20038;-78
2023/06/26 06:20:04;;;;;;;10.63;6.03;;;;;;;23.11;58.28;99685.91;4984415;28;20267;-79
2023/06/26 06:22:29;;;;;;;9.13;4.97;;;;;;;23.20;58.35;99700.47;4984615;28;20156;-79
2023/06/26 06:24:54;;;;;;;9.60;4.93;;;;;;;22.99;58.54;99706.19;4985057;28;20121;-79
2023/06/26 06:27:19;;;;;;;16.80;6.17;;;;;;;23.17;58.42;99709.50;4984121;28;20030;-79
2023/06/26 06:29:45;;;;;;;12.40;6.80;;;;;;;23.13;58.36;99705.81;4984089;28;20089;-78
2023/06/26 06:32:10;;;;;;;16.63;5.60;;;;;;;23.17;58.30;99712.28;4984304;28;20824;-78
2023/06/26 06:34:35;;;;;;;16.20;4.93;;;;;;;23.30;58.10;99712.25;4984225;28;20286;-78
2023/06/26 06:37:02;;;;;;;11.97;5.17;;;;;;;23.30;57.94;99709.47;4983508;28;20315;-81
2023/06/26 06:39:27;;;;;;;10.32;5.15;;;;;;;23.25;58.57;99706.97;4983777;28;20041;-79
2023/06/26 06:41:52;;;;;;;9.83;5.77;;;;;;;23.29;58.83;99702.31;4984329;28;20042;-78
2023/06/26 06:44:18;;;;;;;11.47;4.67;;;;;;;23.31;58.41;99711.06;4983652;28;20046;-79
2023/06/26 06:46:43;;;;;;;11.50;5.30;;;;;;;23.31;58.48;99705.50;4983508;28;20462;-78
2023/06/26 06:49:08;;;;;;;10.87;5.37;;;;;;;23.30;58.65;99709.47;4983308;28;20259;-78
2023/06/26 06:51:34;;;;;;;12.07;5.47;;;;;;;23.35;58.42;99720.34;4983654;28;20137;-78
2023/06/26 06:53:59;;;;;;;78.30;13.07;;;;;;;23.19;58.75;99711.94;4983971;28;20066;-82
2023/06/26 06:56:24;;;;;;;11.20;4.73;;;;;;;23.31;58.69;99706.34;4986381;28;20030;-83
2023/06/26 06:58:50;;;;;;;11.25;4.90;;;;;;;23.31;59.04;99727.75;4983900;28;20034;-83
2023/06/26 07:01:15;;;;;;;11.50;5.50;;;;;;;23.28;59.03;99717.34;4984156;28;20042;-84
2023/06/26 07:03:40;;;;;;;15.90;5.90;;;;;;;23.11;58.92;99724.81;4984632;28;20121;-85
2023/06/26 07:06:05;;;;;;;8.90;4.47;;;;;;;23.34;59.20;99735.41;4983991;28;20642;-81
2023/06/26 07:08:31;;;;;;;13.43;5.55;;;;;;;23.47;58.75;99732.63;4983588;28;20038;-80
2023/06/26 07:10:59;;;;;;;13.85;6.10;;;;;;;23.36;58.78;99735.06;4982549;28;20488;-72
2023/06/26 07:13:25;;;;;;;15.25;5.82;;;;;;;23.36;58.96;99757.31;4982826;28;20042;-72
2023/06/26 07:15:50;;;;;;;12.93;5.65;;;;;;;23.41;58.72;99757.84;4983388;28;20042;-75
2023/06/26 07:18:16;;;;;;;11.40;5.75;;;;;;;23.50;58.61;99756.94;4982282;28;20132;-74
2023/06/26 07:20:41;;;;;;;12.00;5.13;;;;;;;23.35;58.45;99756.47;4982912;28;20133;-74
2023/06/26 07:23:07;;;;;;;11.60;5.50;;;;;;;23.13;59.56;99764.19;4982456;28;20180;-73
2023/06/26 07:25:33;;;;;;;11.27;5.85;;;;;;;23.06;59.79;99769.53;4982485;28;20123;-73
2023/06/26 07:27:58;;;;;;;13.90;5.73;;;;;;;23.13;59.93;99769.75;4982683;28;20026;-75
2023/06/26 07:30:24;;;;;;;13.93;7.37;;;;;;;23.06;59.91;99764.00;4983527;28;20553;-74
2023/06/26 07:32:49;;;;;;;26.85;7.00;;;;;;;23.05;60.16;99773.47;4983406;28;20066;-73
2023/06/26 07:35:15;;;;;;;11.95;5.53;;;;;;;23.03;60.08;99757.16;4982396;28;20034;-73
2023/06/26 07:37:41;;;;;;;18.92;7.45;;;;;;;23.08;60.26;99764.44;4982528;28;20480;-73
2023/06/26 07:40:06;;;;;;;12.15;7.53;;;;;;;23.36;59.82;99774.00;4982727;28;20034;-75
2023/06/26 07:42:32;;;;;;;9.43;5.93;;;;;;;23.44;59.74;99775.81;4981886;28;20046;-74
2023/06/26 07:44:57;;;;;;;12.73;7.00;;;;;;;23.24;59.96;99772.06;4981766;28;20042;-73
2023/06/26 07:47:22;;;;;;;15.07;6.50;;;;;;;23.13;60.06;99766.97;4983052;28;20322;-76
2023/06/26 07:49:47;;;;;;;14.03;6.13;;;;;;;23.02;60.75;99776.97;4982096;28;20072;-76
2023/06/26 07:52:15;;;;;;;13.80;7.07;;;;;;;23.15;60.51;99772.19;4982641;28;20141;-73
2023/06/26 07:54:40;;;;;;;13.75;6.65;;;;;;;23.27;60.58;99765.81;4984499;28;20498;-75
2023/06/26 07:57:08;;;;;;;13.25;6.63;;;;;;;23.37;60.44;99770.84;4983472;28;20030;-76
2023/06/26 07:59:34;;;;;;;10.88;6.57;;;;;;;23.62;60.03;99764.41;4982367;28;20039;-75
2023/06/26 08:02:00;;;;;;;30.20;7.40;;;;;;;23.57;59.72;99768.28;4982239;28;20038;-74
2023/06/26 08:04:27;;;;;;;14.35;7.22;;;;;;;23.68;60.11;99763.00;4983328;28;20041;-73
2023/06/26 08:06:56;;;;;;;19.20;8.40;;;;;;;23.52;59.82;99777.69;4983797;28;20508;-73
2023/06/26 08:09:23;;;;;;;17.95;9.23;;;;;;;23.54;59.39;99772.56;4981359;28;20069;-74
2023/06/26 08:11:49;;;;;;;13.45;9.18;;;;;;;23.60;59.37;99778.69;4983584;28;21199;-75
2023/06/26 08:14:15;;;;;;;10.82;8.15;;;;;;;23.63;59.37;99777.19;4986575;28;20085;-74
2023/06/26 08:16:41;;;;;;;13.95;9.07;;;;;;;23.76;59.38;99781.53;4986033;28;20038;-76
2023/06/26 08:19:07;;;;;;;23.85;8.93;;;;;;;24.02;58.63;99779.44;4986181;28;20038;-76
2023/06/26 08:21:33;;;;;;;21.25;10.45;;;;;;;24.02;58.36;99791.38;4986259;28;20048;-76
2023/06/26 08:23:58;;;;;;;14.70;8.00;;;;;;;23.87;59.34;99787.41;4986060;28;20096;-75
2023/06/26 08:26:23;;;;;;;17.48;8.25;;;;;;;24.13;59.17;99793.63;4986047;28;20120;-76
2023/06/26 08:28:49;;;;;;;15.37;7.00;;;;;;;24.19;58.30;99802.53;4985767;28;20381;-74
2023/06/26 08:31:14;;;;;;;10.83;5.40;;;;;;;24.28;58.28;99788.47;4986393;28;20267;-75
2023/06/26 08:33:39;;;;;;;14.07;6.18;;;;;;;24.18;58.24;99803.69;4986297;28;20272;-75
2023/06/26 08:36:05;;;;;;;11.93;7.03;;;;;;;24.31;58.12;99804.44;4984507;28;20045;-74
2023/06/26 08:38:30;;;;;;;11.80;6.23;;;;;;;24.42;58.09;99815.88;4985196;28;20030;-74
2023/06/26 08:40:55;;;;;;;13.67;6.70;;;;;;;24.15;58.52;99816.34;4986176;28;20264;-74
2023/06/26 08:43:21;;;;;;;26.63;7.70;;;;;;;24.17;58.42;99816.81;4986488;28;20267;-75
2023/06/26 08:45:51;;;;;;;11.77;6.68;;;;;;;24.25;58.52;99818.66;4986230;28;20363;-74
2023/06/26 08:48:17;;;;;;;13.18;6.68;;;;;;;24.19;58.57;99819.22;4986344;28;20034;-73
2023/06/26 08:50:43;;;;;;;20.30;8.13;;;;;;;24.28;58.70;99822.69;4986122;28;20045;-75
2023/06/26 08:53:30;;;;;;;10.40;6.75;;;;;;;24.53;58.62;99816.94;4986252;28;20415;-74
2023/06/26 08:55:57;;;;;;;13.27;7.53;;;;;;;24.60;58.37;99821.91;4985246;28;20407;-75
2023/06/26 08:58:25;;;;;;;18.38;7.85;;;;;;;24.30;58.27;99814.00;4985027;28;20658;-75
2023/06/26 09:00:51;;;;;;;16.42;7.45;;;;;;;24.07;59.38;99825.69;4985671;28;20504;-75
2023/06/26 09:03:17;;;;;;;9.80;6.78;;;;;;;24.33;59.24;99821.59;4985158;28;20045;-72
2023/06/26 09:05:42;;;;;;;13.10;7.70;;;;;;;24.26;58.06;99833.38;4985381;28;20060;-74
2023/06/26 09:08:07;;;;;;;18.63;8.70;;;;;;;24.28;58.51;99825.50;4984925;28;20038;-74
2023/06/26 09:10:33;;;;;;;19.58;11.15;;;;;;;24.49;58.07;99830.78;4985164;28;20547;-74
2023/06/26 09:13:01;;;;;;;13.57;9.23;;;;;;;24.35;58.15;99841.56;4985318;28;20034;-75
2023/06/26 09:15:28;;;;;;;18.90;8.65;;;;;;;24.30;57.28;99836.25;4986100;28;21238;-75
2023/06/26 09:17:56;;;;;;;10.20;6.95;;;;;;;24.19;57.72;99833.16;4985318;28;20117;-75
2023/06/26 09:20:21;;;;;;;14.68;6.10;;;;;;;24.19;58.09;99841.50;4985109;28;20041;-74
2023/06/26 09:22:48;;;;;;;24.53;7.23;;;;;;;24.26;57.91;99841.75;4984875;28;20622;-74
2023/06/26 09:25:14;;;;;;;17.13;7.13;;;;;;;24.36;57.94;99846.78;4985636;28;20038;-79
2023/06/26 09:27:42;;;;;;;12.82;6.82;;;;;;;24.66;57.49;99841.94;4985956;28;20023;-79
2023/06/26 09:30:08;;;;;;;14.32;6.05;;;;;;;24.67;57.01;99846.38;4985213;28;20149;-79
2023/06/26 09:32:36;;;;;;;12.43;5.30;;;;;;;24.84;56.15;99832.06;4985571;28;20602;-79
2023/06/26 09:35:03;;;;;;;18.75;7.47;;;;;;;24.93;56.08;99828.28;4985467;28;20034;-75
2023/06/26 09:37:29;;;;;;;9.85;4.75;;;;;;;25.02;56.32;99831.69;4985151;28;20476;-74
2023/06/26 09:39:54;;;;;;;13.20;5.53;;;;;;;24.73;56.03;99836.56;4984886;28;20049;-75
2023/06/26 09:42:20;;;;;;;10.63;6.05;;;;;;;24.91;55.75;99837.00;4985068;28;20045;-75
2023/06/26 09:44:46;;;;;;;12.93;5.07;;;;;;;25.03;55.28;99838.91;4985070;28;20041;-76
2023/06/26 09:47:11;;;;;;;10.93;4.22;;;;;;;25.30;54.06;99836.31;4984873;28;20037;-75
2023/06/26 09:49:41;;;;;;;11.73;5.13;;;;;;;25.27;53.53;99839.84;4983114;28;21246;-76
2023/06/26 09:52:07;;;;;;;8.93;4.03;;;;;;;25.24;53.82;99837.75;4984950;28;20342;-77
2023/06/26 09:54:32;;;;;;;10.38;5.88;;;;;;;25.27;53.20;99847.38;4985097;28;20034;-76
2023/06/26 09:57:20;;;;;;;12.90;5.07;;;;;;;25.35;52.33;99848.34;4984838;28;20146;-76
2023/06/26 09:59:45;;;;;;;12.35;4.80;;;;;;;25.28;52.51;99844.22;4984536;28;20230;-75
2023/06/26 10:02:11;;;;;;;18.40;6.17;;;;;;;25.25;52.42;99849.72;4984397;28;20542;-75
2023/06/26 10:04:37;;;;;;;14.13;4.03;;;;;;;25.30;52.39;99858.63;4984951;28;20042;-75
2023/06/26 10:07:11;;;;;;;7.20;3.60;;;;;;;25.55;51.96;99851.19;4983552;28;20053;-74
2023/06/26 10:09:40;;;;;;;10.13;4.18;;;;;;;25.66;51.64;99855.00;4983658;28;20041;-75
2023/06/26 10:12:29;;;;;;;10.15;3.22;;;;;;;25.70;50.55;99863.47;4984011;28;20056;-75
2023/06/26 10:15:00;;;;;;;9.43;3.88;;;;;;;25.82;50.06;99859.75;4984319;28;20065;-75
2023/06/26 10:17:30;;;;;;;10.73;3.65;;;;;;;25.68;49.97;99866.66;4983045;28;20423;-75
2023/06/26 10:19:58;;;;;;;6.50;3.55;;;;;;;25.72;47.97;99861.13;4983555;28;20041;-75
2023/06/26 10:22:28;;;;;;;10.73;3.75;;;;;;;25.62;48.76;99868.91;4983434;28;20483;-75
2023/06/26 10:24:58;;;;;;;9.07;4.00;;;;;;;25.59;49.88;99866.81;4982567;28;20030;-76
2023/06/26 10:27:27;;;;;;;8.32;3.40;;;;;;;25.83;49.43;99864.16;4984093;28;20042;-76
2023/06/26 10:29:55;;;;;;;9.73;3.95;;;;;;;25.83;48.76;99864.16;4984000;28;20045;-75
2023/06/26 10:32:24;;;;;;;14.63;5.45;;;;;;;26.06;47.83;99858.63;4983795;28;20037;-76
2023/06/26 10:34:50;;;;;;;8.60;3.63;;;;;;;26.01;47.52;99867.31;4983621;28;20069;-76
2023/06/26 10:37:15;;;;;;;11.65;4.72;;;;;;;26.11;47.17;99865.91;4983921;28;20443;-75
2023/06/26 10:39:51;;;;;;;17.13;13.13;;;;;;;26.26;46.67;99861.38;4983211;28;20065;-76
2023/06/26 10:42:17;;;;;;;9.85;3.95;;;;;;;26.40;47.25;99860.88;4983382;28;20420;-76
2023/06/26 10:44:44;;;;;;;13.88;4.90;;;;;;;26.74;46.55;99851.06;4983724;28;20034;-76
2023/06/26 10:47:11;;;;;;;14.35;13.10;;;;;;;26.84;45.86;99853.22;4983359;28;20068;-76
2023/06/26 10:49:38;;;;;;;55.03;49.38;;;;;;;26.93;45.10;99864.16;4983037;28;20045;-76
2023/06/26 10:52:04;;;;;;;14.80;5.68;;;;;;;26.46;44.37;99869.78;4983233;28;20073;-75
2023/06/26 10:54:31;;;;;;;15.13;6.35;;;;;;;26.19;44.01;99873.25;4983221;28;20527;-77
2023/06/26 10:56:56;;;;;;;11.27;5.43;;;;;;;26.28;44.68;99877.78;4983545;28;20357;-75
2023/06/26 10:59:24;;;;;;;25.17;23.00;;;;;;;26.37;43.95;99875.56;4983223;28;20042;-75
2023/06/26 11:02:01;;;;;;;5.85;3.00;;;;;;;26.27;43.43;99876.16;4983190;28;20072;-77
2023/06/26 11:04:53;;;;;;;6.95;2.85;;;;;;;25.88;44.81;99878.63;4984120;28;20718;-76
2023/06/26 11:07:26;;;;;;;97.43;15.73;;;;;;;26.19;44.88;99878.84;4983354;28;20041;-76
2023/06/26 11:10:09;;;;;;;25.77;23.10;;;;;;;26.49;44.66;99876.59;4983840;28;20132;-74
2023/06/26 11:12:43;;;;;;;10.70;8.77;;;;;;;26.63;44.40;99876.03;4983813;28;20042;-74
2023/06/26 11:15:16;;;;;;;;;;;;;;;26.79;43.15;99876.72;4984483;28;20487;-74
2023/06/26 11:17:42;;;;;;;8.82;3.83;;;;;;;26.90;43.86;99870.50;4983860;28;20013;-75
2023/06/26 11:20:16;;;;;;;15.02;3.88;;;;;;;27.08;42.94;99867.19;4983190;28;20046;-76
2023/06/26 11:22:42;;;;;;;;;;;;;;;26.95;42.38;99852.59;4983672;28;20038;-75
2023/06/26 11:25:09;;;;;;;9.93;3.45;;;;;;;26.73;43.03;99866.25;4983564;28;19922;-76